sensor_id;sensor_type;location;lat;lon;timestamp;P1;durP1;ratioP1;P2;durP2;ratioP2
8230;SDS011;4156;50.908;6.974;2024-01-15T00:02:06;14.33;;;8.80;;
8230;SDS011;4156;50.908;6.974;2024-01-15T00:04:37;17.67;;;9.00;;
8230;SDS011;4156;50.908;6.974;2024-01-15T00:07:03;17.17;;;9.80;;
8230;SDS011;4156;50.908;6.974;2024-01-15T00:09:29;18.03;;;10.53;;
8230;SDS011;4156;50.908;6.974;2024-01-15T00:11:55;19.33;;;10.93;;
8230;SDS011;4156;50.908;6.974;2024-01-15T00:14:22;18.27;;;9.40;;
8230;SDS011;4156;50.908;6.974;2024-01-15T00:16:48;20.03;;;10.80;;
8230;SDS011;4156;50.908;6.974;2024-01-15T00:19:15;16.47;;;10.60;;
8230;SDS011;4156;50.908;6.974;2024-01-15T00:21:41;19.20;;;10.67;;
8230;SDS011;4156;50.908;6.974;2024-01-15T00:24:07;18.93;;;10.67;;
8230;SDS011;4156;50.908;6.974;2024-01-15T00:26:33;16.17;;;9.60;;
8230;SDS011;4156;50.908;6.974;2024-01-15T00:28:59;16.90;;;9.00;;
8230;SDS011;4156;50.908;6.974;2024-01-15T00:31:25;19.07;;;9.90;;
8230;SDS011;4156;50.908;6.974;2024-01-15T00:33:51;21.57;;;11.27;;
8230;SDS011;4156;50.908;6.974;2024-01-15T00:36:17;19.07;;;9.90;;
8230;SDS011;4156;50.908;6.974;2024-01-15T00:38:44;19.13;;;10.50;;
8230;SDS011;4156;50.908;6.974;2024-01-15T00:41:12;19.00;;;9.87;;
8230;SDS011;4156;50.908;6.974;2024-01-15T00:43:38;24.27;;;10.93;;
8230;SDS011;4156;50.908;6.974;2024-01-15T00:46:04;23.20;;;10.43;;
8230;SDS011;4156;50.908;6.974;2024-01-15T00:48:30;16.37;;;9.03;;
8230;SDS011;4156;50.908;6.974;2024-01-15T00:50:57;20.50;;;10.27;;
8230;SDS011;4156;50.908;6.974;2024-01-15T00:53:23;20.80;;;10.23;;
8230;SDS011;4156;50.908;6.974;2024-01-15T00:55:49;19.97;;;10.93;;
8230;SDS011;4156;50.908;6.974;2024-01-15T00:58:15;20.50;;;12.73;;
8230;SDS011;4156;50.908;6.974;2024-01-15T01:00:41;22.67;;;10.17;;
8230;SDS011;4156;50.908;6.974;2024-01-15T01:03:07;23.80;;;11.97;;
8230;SDS011;4156;50.908;6.974;2024-01-15T01:05:34;18.10;;;9.10;;
8230;SDS011;4156;50.908;6.974;2024-01-15T01:08:00;22.37;;;10.27;;
8230;SDS011;4156;50.908;6.974;2024-01-15T01:10:26;25.43;;;10.47;;
8230;SDS011;4156;50.908;6.974;2024-01-15T01:12:52;19.60;;;10.70;;
8230;SDS011;4156;50.908;6.974;2024-01-15T01:15:18;19.90;;;10.03;;
8230;SDS011;4156;50.908;6.974;2024-01-15T01:17:45;22.30;;;10.80;;
8230;SDS011;4156;50.908;6.974;2024-01-15T01:20:11;22.27;;;11.13;;
8230;SDS011;4156;50.908;6.974;2024-01-15T01:22:37;23.67;;;12.00;;
8230;SDS011;4156;50.908;6.974;2024-01-15T01:25:03;21.00;;;10.97;;
8230;SDS011;4156;50.908;6.974;2024-01-15T01:27:30;21.97;;;11.30;;
8230;SDS011;4156;50.908;6.974;2024-01-15T01:29:55;20.30;;;10.23;;
8230;SDS011;4156;50.908;6.974;2024-01-15T01:32:21;24.00;;;11.47;;
8230;SDS011;4156;50.908;6.974;2024-01-15T01:34:48;19.37;;;10.67;;
8230;SDS011;4156;50.908;6.974;2024-01-15T01:37:14;24.63;;;11.37;;
8230;SDS011;4156;50.908;6.974;2024-01-15T01:39:43;17.00;;;9.47;;
8230;SDS011;4156;50.908;6.974;2024-01-15T01:42:09;23.00;;;11.37;;
8230;SDS011;4156;50.908;6.974;2024-01-15T01:44:35;15.47;;;9.03;;
8230;SDS011;4156;50.908;6.974;2024-01-15T01:47:01;23.47;;;10.87;;
8230;SDS011;4156;50.908;6.974;2024-01-15T01:49:28;22.07;;;10.97;;
8230;SDS011;4156;50.908;6.974;2024-01-15T01:51:57;21.23;;;11.93;;
8230;SDS011;4156;50.908;6.974;2024-01-15T01:54:24;22.17;;;11.00;;
8230;SDS011;4156;50.908;6.974;2024-01-15T01:56:51;17.77;;;9.57;;
8230;SDS011;4156;50.908;6.974;2024-01-15T01:59:17;25.27;;;11.43;;
8230;SDS011;4156;50.908;6.974;2024-01-15T02:01:44;19.07;;;10.50;;
8230;SDS011;4156;50.908;6.974;2024-01-15T02:04:11;23.70;;;11.00;;
8230;SDS011;4156;50.908;6.974;2024-01-15T02:06:37;19.43;;;9.63;;
8230;SDS011;4156;50.908;6.974;2024-01-15T02:09:03;21.77;;;10.60;;
8230;SDS011;4156;50.908;6.974;2024-01-15T02:11:30;24.10;;;10.77;;
8230;SDS011;4156;50.908;6.974;2024-01-15T02:13:56;18.93;;;11.10;;
8230;SDS011;4156;50.908;6.974;2024-01-15T02:16:22;17.87;;;9.97;;
8230;SDS011;4156;50.908;6.974;2024-01-15T02:18:48;17.73;;;10.03;;
8230;SDS011;4156;50.908;6.974;2024-01-15T02:21:15;18.80;;;9.93;;
8230;SDS011;4156;50.908;6.974;2024-01-15T02:23:41;19.10;;;9.17;;
8230;SDS011;4156;50.908;6.974;2024-01-15T02:26:07;20.03;;;11.10;;
8230;SDS011;4156;50.908;6.974;2024-01-15T02:28:33;20.33;;;10.73;;
8230;SDS011;4156;50.908;6.974;2024-01-15T02:31:00;21.33;;;10.73;;
8230;SDS011;4156;50.908;6.974;2024-01-15T02:33:26;18.37;;;9.90;;
8230;SDS011;4156;50.908;6.974;2024-01-15T02:35:52;20.83;;;11.47;;
8230;SDS011;4156;50.908;6.974;2024-01-15T02:38:18;19.80;;;9.80;;
8230;SDS011;4156;50.908;6.974;2024-01-15T02:40:44;21.80;;;10.37;;
8230;SDS011;4156;50.908;6.974;2024-01-15T02:43:11;21.87;;;10.77;;
8230;SDS011;4156;50.908;6.974;2024-01-15T02:45:38;17.50;;;10.17;;
8230;SDS011;4156;50.908;6.974;2024-01-15T02:48:04;15.87;;;9.13;;
8230;SDS011;4156;50.908;6.974;2024-01-15T02:50:30;21.17;;;11.17;;
8230;SDS011;4156;50.908;6.974;2024-01-15T02:52:57;24.03;;;11.33;;
8230;SDS011;4156;50.908;6.974;2024-01-15T02:55:23;21.90;;;11.27;;
8230;SDS011;4156;50.908;6.974;2024-01-15T02:57:49;17.60;;;10.30;;
8230;SDS011;4156;50.908;6.974;2024-01-15T03:00:15;21.17;;;10.70;;
8230;SDS011;4156;50.908;6.974;2024-01-15T03:02:41;19.27;;;10.67;;
8230;SDS011;4156;50.908;6.974;2024-01-15T03:05:09;21.57;;;11.47;;
8230;SDS011;4156;50.908;6.974;2024-01-15T03:07:36;19.50;;;10.80;;
8230;SDS011;4156;50.908;6.974;2024-01-15T03:10:02;15.27;;;9.40;;
8230;SDS011;4156;50.908;6.974;2024-01-15T03:12:28;25.30;;;10.83;;
8230;SDS011;4156;50.908;6.974;2024-01-15T03:14:54;20.50;;;10.73;;
8230;SDS011;4156;50.908;6.974;2024-01-15T03:17:20;22.43;;;11.53;;
8230;SDS011;4156;50.908;6.974;2024-01-15T03:19:46;17.50;;;10.53;;
8230;SDS011;4156;50.908;6.974;2024-01-15T03:22:12;17.53;;;9.77;;
8230;SDS011;4156;50.908;6.974;2024-01-15T03:24:38;21.23;;;11.57;;
8230;SDS011;4156;50.908;6.974;2024-01-15T03:27:04;18.07;;;9.93;;
8230;SDS011;4156;50.908;6.974;2024-01-15T03:29:30;16.80;;;11.07;;
8230;SDS011;4156;50.908;6.974;2024-01-15T03:31:56;15.63;;;10.27;;
8230;SDS011;4156;50.908;6.974;2024-01-15T03:34:22;21.60;;;11.00;;
8230;SDS011;4156;50.908;6.974;2024-01-15T03:36:48;21.57;;;10.90;;
8230;SDS011;4156;50.908;6.974;2024-01-15T03:39:14;16.63;;;9.53;;
8230;SDS011;4156;50.908;6.974;2024-01-15T03:41:40;15.30;;;9.80;;
8230;SDS011;4156;50.908;6.974;2024-01-15T03:44:06;17.37;;;10.63;;
8230;SDS011;4156;50.908;6.974;2024-01-15T03:46:32;19.40;;;10.17;;
8230;SDS011;4156;50.908;6.974;2024-01-15T03:48:58;20.03;;;10.63;;
8230;SDS011;4156;50.908;6.974;2024-01-15T03:51:24;14.60;;;9.50;;
8230;SDS011;4156;50.908;6.974;2024-01-15T03:53:50;15.50;;;9.97;;
8230;SDS011;4156;50.908;6.974;2024-01-15T03:56:16;21.23;;;11.23;;
8230;SDS011;4156;50.908;6.974;2024-01-15T03:58:42;20.03;;;10.80;;
8230;SDS011;4156;50.908;6.974;2024-01-15T04:01:11;15.40;;;11.20;;
8230;SDS011;4156;50.908;6.974;2024-01-15T04:03:37;16.93;;;9.33;;
8230;SDS011;4156;50.908;6.974;2024-01-15T04:06:04;20.37;;;11.00;;
8230;SDS011;4156;50.908;6.974;2024-01-15T04:08:30;18.57;;;10.73;;
8230;SDS011;4156;50.908;6.974;2024-01-15T04:10:56;23.70;;;12.23;;
8230;SDS011;4156;50.908;6.974;2024-01-15T04:13:22;19.70;;;11.17;;
8230;SDS011;4156;50.908;6.974;2024-01-15T04:15:48;19.17;;;10.87;;
8230;SDS011;4156;50.908;6.974;2024-01-15T04:18:15;17.17;;;10.20;;
8230;SDS011;4156;50.908;6.974;2024-01-15T04:20:42;18.37;;;10.17;;
8230;SDS011;4156;50.908;6.974;2024-01-15T04:23:08;19.03;;;11.13;;
8230;SDS011;4156;50.908;6.974;2024-01-15T04:25:34;19.53;;;10.30;;
8230;SDS011;4156;50.908;6.974;2024-01-15T04:28:00;20.47;;;11.50;;
8230;SDS011;4156;50.908;6.974;2024-01-15T04:30:26;17.43;;;9.63;;
8230;SDS011;4156;50.908;6.974;2024-01-15T04:32:52;20.40;;;11.40;;
8230;SDS011;4156;50.908;6.974;2024-01-15T04:35:18;15.10;;;9.63;;
8230;SDS011;4156;50.908;6.974;2024-01-15T04:37:44;17.03;;;9.73;;
8230;SDS011;4156;50.908;6.974;2024-01-15T04:40:10;18.17;;;11.40;;
8230;SDS011;4156;50.908;6.974;2024-01-15T04:42:36;17.93;;;10.30;;
8230;SDS011;4156;50.908;6.974;2024-01-15T04:45:03;16.03;;;9.07;;
8230;SDS011;4156;50.908;6.974;2024-01-15T04:47:29;14.13;;;9.17;;
8230;SDS011;4156;50.908;6.974;2024-01-15T04:49:55;17.77;;;9.13;;
8230;SDS011;4156;50.908;6.974;2024-01-15T04:52:21;18.40;;;10.20;;
8230;SDS011;4156;50.908;6.974;2024-01-15T04:54:47;17.17;;;9.73;;
8230;SDS011;4156;50.908;6.974;2024-01-15T04:57:13;16.63;;;9.93;;
8230;SDS011;4156;50.908;6.974;2024-01-15T04:59:39;16.40;;;9.23;;
8230;SDS011;4156;50.908;6.974;2024-01-15T05:02:05;18.93;;;9.43;;
8230;SDS011;4156;50.908;6.974;2024-01-15T05:04:32;16.93;;;8.93;;
8230;SDS011;4156;50.908;6.974;2024-01-15T05:06:58;14.90;;;8.43;;
8230;SDS011;4156;50.908;6.974;2024-01-15T05:09:24;14.37;;;8.43;;
8230;SDS011;4156;50.908;6.974;2024-01-15T05:11:50;12.33;;;8.57;;
8230;SDS011;4156;50.908;6.974;2024-01-15T05:14:16;17.43;;;9.43;;
8230;SDS011;4156;50.908;6.974;2024-01-15T05:16:51;13.90;;;8.53;;
8230;SDS011;4156;50.908;6.974;2024-01-15T05:19:18;16.33;;;9.13;;
8230;SDS011;4156;50.908;6.974;2024-01-15T05:21:44;14.13;;;7.83;;
8230;SDS011;4156;50.908;6.974;2024-01-15T05:24:10;12.43;;;8.80;;
8230;SDS011;4156;50.908;6.974;2024-01-15T05:26:36;14.87;;;8.77;;
8230;SDS011;4156;50.908;6.974;2024-01-15T05:29:02;12.10;;;7.70;;
8230;SDS011;4156;50.908;6.974;2024-01-15T05:31:28;16.20;;;7.97;;
8230;SDS011;4156;50.908;6.974;2024-01-15T05:33:54;17.37;;;8.37;;
8230;SDS011;4156;50.908;6.974;2024-01-15T05:36:20;16.70;;;9.30;;
8230;SDS011;4156;50.908;6.974;2024-01-15T05:38:47;14.60;;;8.37;;
8230;SDS011;4156;50.908;6.974;2024-01-15T05:41:14;15.73;;;8.47;;
8230;SDS011;4156;50.908;6.974;2024-01-15T05:43:40;13.10;;;8.70;;
8230;SDS011;4156;50.908;6.974;2024-01-15T05:46:06;11.73;;;7.87;;
8230;SDS011;4156;50.908;6.974;2024-01-15T05:48:32;12.03;;;7.57;;
8230;SDS011;4156;50.908;6.974;2024-01-15T05:50:58;12.90;;;7.67;;
8230;SDS011;4156;50.908;6.974;2024-01-15T05:53:24;11.90;;;6.83;;
8230;SDS011;4156;50.908;6.974;2024-01-15T05:55:50;12.47;;;7.67;;
8230;SDS011;4156;50.908;6.974;2024-01-15T05:58:16;11.87;;;7.40;;
8230;SDS011;4156;50.908;6.974;2024-01-15T06:00:42;11.47;;;7.00;;
8230;SDS011;4156;50.908;6.974;2024-01-15T06:03:08;13.27;;;6.63;;
8230;SDS011;4156;50.908;6.974;2024-01-15T06:05:34;13.27;;;6.70;;
8230;SDS011;4156;50.908;6.974;2024-01-15T06:08:00;10.33;;;6.63;;
8230;SDS011;4156;50.908;6.974;2024-01-15T06:10:26;12.53;;;7.30;;
8230;SDS011;4156;50.908;6.974;2024-01-15T06:12:52;11.63;;;6.93;;
8230;SDS011;4156;50.908;6.974;2024-01-15T06:15:18;12.37;;;7.43;;
8230;SDS011;4156;50.908;6.974;2024-01-15T06:17:44;11.70;;;7.23;;
8230;SDS011;4156;50.908;6.974;2024-01-15T06:20:10;11.27;;;7.57;;
8230;SDS011;4156;50.908;6.974;2024-01-15T06:22:37;10.00;;;6.60;;
8230;SDS011;4156;50.908;6.974;2024-01-15T06:25:04;10.23;;;7.37;;
8230;SDS011;4156;50.908;6.974;2024-01-15T06:27:30;13.20;;;8.07;;
8230;SDS011;4156;50.908;6.974;2024-01-15T06:29:56;10.83;;;6.87;;
8230;SDS011;4156;50.908;6.974;2024-01-15T06:32:22;12.47;;;6.97;;
8230;SDS011;4156;50.908;6.974;2024-01-15T06:34:48;12.63;;;7.77;;
8230;SDS011;4156;50.908;6.974;2024-01-15T06:37:14;13.00;;;8.50;;
8230;SDS011;4156;50.908;6.974;2024-01-15T06:39:40;12.43;;;7.47;;
8230;SDS011;4156;50.908;6.974;2024-01-15T06:42:06;11.10;;;7.20;;
8230;SDS011;4156;50.908;6.974;2024-01-15T06:44:32;10.20;;;7.17;;
8230;SDS011;4156;50.908;6.974;2024-01-15T06:46:58;14.13;;;7.83;;
8230;SDS011;4156;50.908;6.974;2024-01-15T06:49:27;12.13;;;8.07;;
8230;SDS011;4156;50.908;6.974;2024-01-15T06:51:54;13.40;;;9.10;;
8230;SDS011;4156;50.908;6.974;2024-01-15T06:54:20;13.27;;;8.60;;
8230;SDS011;4156;50.908;6.974;2024-01-15T06:56:46;10.93;;;7.63;;
8230;SDS011;4156;50.908;6.974;2024-01-15T06:59:12;10.73;;;7.13;;
8230;SDS011;4156;50.908;6.974;2024-01-15T07:01:38;13.10;;;8.40;;
8230;SDS011;4156;50.908;6.974;2024-01-15T07:04:04;12.53;;;7.83;;
8230;SDS011;4156;50.908;6.974;2024-01-15T07:06:30;12.23;;;8.70;;
8230;SDS011;4156;50.908;6.974;2024-01-15T07:08:56;12.70;;;8.50;;
8230;SDS011;4156;50.908;6.974;2024-01-15T07:11:22;13.23;;;8.67;;
8230;SDS011;4156;50.908;6.974;2024-01-15T07:13:48;13.17;;;8.43;;
8230;SDS011;4156;50.908;6.974;2024-01-15T07:16:14;12.30;;;7.53;;
8230;SDS011;4156;50.908;6.974;2024-01-15T07:18:40;14.03;;;7.90;;
8230;SDS011;4156;50.908;6.974;2024-01-15T07:21:06;12.87;;;8.13;;
8230;SDS011;4156;50.908;6.974;2024-01-15T07:23:32;11.37;;;6.93;;
8230;SDS011;4156;50.908;6.974;2024-01-15T07:25:58;12.63;;;7.87;;
8230;SDS011;4156;50.908;6.974;2024-01-15T07:28:24;11.47;;;7.67;;
8230;SDS011;4156;50.908;6.974;2024-01-15T07:30:51;17.67;;;8.60;;
8230;SDS011;4156;50.908;6.974;2024-01-15T07:33:17;12.00;;;8.53;;
8230;SDS011;4156;50.908;6.974;2024-01-15T07:35:43;12.90;;;8.13;;
8230;SDS011;4156;50.908;6.974;2024-01-15T07:38:09;12.80;;;7.47;;
8230;SDS011;4156;50.908;6.974;2024-01-15T07:40:36;13.27;;;7.70;;
8230;SDS011;4156;50.908;6.974;2024-01-15T07:43:02;16.83;;;8.37;;
8230;SDS011;4156;50.908;6.974;2024-01-15T07:45:28;13.10;;;8.67;;
8230;SDS011;4156;50.908;6.974;2024-01-15T07:47:55;10.80;;;7.97;;
8230;SDS011;4156;50.908;6.974;2024-01-15T07:50:21;14.07;;;7.87;;
8230;SDS011;4156;50.908;6.974;2024-01-15T07:52:47;16.17;;;9.53;;
8230;SDS011;4156;50.908;6.974;2024-01-15T07:55:13;14.47;;;9.63;;
8230;SDS011;4156;50.908;6.974;2024-01-15T07:57:39;16.47;;;8.53;;
8230;SDS011;4156;50.908;6.974;2024-01-15T08:00:05;13.03;;;9.03;;
8230;SDS011;4156;50.908;6.974;2024-01-15T08:02:34;15.27;;;8.77;;
8230;SDS011;4156;50.908;6.974;2024-01-15T08:05:00;12.40;;;7.93;;
8230;SDS011;4156;50.908;6.974;2024-01-15T08:07:25;13.00;;;8.87;;
8230;SDS011;4156;50.908;6.974;2024-01-15T08:09:52;13.20;;;8.17;;
8230;SDS011;4156;50.908;6.974;2024-01-15T08:12:18;18.67;;;9.90;;
8230;SDS011;4156;50.908;6.974;2024-01-15T08:14:44;13.33;;;10.00;;
8230;SDS011;4156;50.908;6.974;2024-01-15T08:17:10;14.17;;;9.00;;
8230;SDS011;4156;50.908;6.974;2024-01-15T08:19:36;15.27;;;9.50;;
8230;SDS011;4156;50.908;6.974;2024-01-15T08:22:06;17.73;;;9.80;;
8230;SDS011;4156;50.908;6.974;2024-01-15T08:24:32;14.47;;;9.60;;
8230;SDS011;4156;50.908;6.974;2024-01-15T08:26:58;17.63;;;9.57;;
8230;SDS011;4156;50.908;6.974;2024-01-15T08:29:24;17.40;;;9.33;;
8230;SDS011;4156;50.908;6.974;2024-01-15T08:31:50;17.03;;;9.97;;
8230;SDS011;4156;50.908;6.974;2024-01-15T08:34:16;13.93;;;9.73;;
8230;SDS011;4156;50.908;6.974;2024-01-15T08:36:42;16.87;;;10.23;;
8230;SDS011;4156;50.908;6.974;2024-01-15T08:39:08;15.63;;;10.07;;
8230;SDS011;4156;50.908;6.974;2024-01-15T08:41:34;13.23;;;8.53;;
8230;SDS011;4156;50.908;6.974;2024-01-15T08:44:00;14.83;;;9.13;;
8230;SDS011;4156;50.908;6.974;2024-01-15T08:46:26;13.73;;;8.93;;
8230;SDS011;4156;50.908;6.974;2024-01-15T08:48:52;17.40;;;10.53;;
8230;SDS011;4156;50.908;6.974;2024-01-15T08:51:18;14.53;;;9.20;;
8230;SDS011;4156;50.908;6.974;2024-01-15T08:53:44;18.07;;;9.43;;
8230;SDS011;4156;50.908;6.974;2024-01-15T08:56:10;16.80;;;9.67;;
8230;SDS011;4156;50.908;6.974;2024-01-15T08:58:36;12.70;;;8.73;;
8230;SDS011;4156;50.908;6.974;2024-01-15T09:01:02;18.30;;;10.30;;
8230;SDS011;4156;50.908;6.974;2024-01-15T09:03:28;14.23;;;9.00;;
8230;SDS011;4156;50.908;6.974;2024-01-15T09:05:54;12.97;;;9.27;;
8230;SDS011;4156;50.908;6.974;2024-01-15T09:08:20;14.67;;;9.07;;
8230;SDS011;4156;50.908;6.974;2024-01-15T09:10:46;13.70;;;9.77;;
8230;SDS011;4156;50.908;6.974;2024-01-15T09:13:12;15.53;;;8.37;;
8230;SDS011;4156;50.908;6.974;2024-01-15T09:15:38;13.40;;;8.40;;
8230;SDS011;4156;50.908;6.974;2024-01-15T09:18:05;11.20;;;7.37;;
8230;SDS011;4156;50.908;6.974;2024-01-15T09:20:31;13.63;;;7.77;;
8230;SDS011;4156;50.908;6.974;2024-01-15T09:22:57;15.17;;;7.27;;
8230;SDS011;4156;50.908;6.974;2024-01-15T09:25:23;10.97;;;7.23;;
8230;SDS011;4156;50.908;6.974;2024-01-15T09:27:49;8.20;;;6.17;;
8230;SDS011;4156;50.908;6.974;2024-01-15T09:30:15;8.93;;;6.53;;
8230;SDS011;4156;50.908;6.974;2024-01-15T09:32:41;8.40;;;5.87;;
8230;SDS011;4156;50.908;6.974;2024-01-15T09:35:07;8.10;;;5.90;;
8230;SDS011;4156;50.908;6.974;2024-01-15T09:37:33;8.63;;;5.70;;
8230;SDS011;4156;50.908;6.974;2024-01-15T09:39:59;10.07;;;6.57;;
8230;SDS011;4156;50.908;6.974;2024-01-15T09:42:26;6.90;;;4.93;;
8230;SDS011;4156;50.908;6.974;2024-01-15T09:44:52;6.37;;;4.93;;
8230;SDS011;4156;50.908;6.974;2024-01-15T09:47:18;9.13;;;5.37;;
8230;SDS011;4156;50.908;6.974;2024-01-15T09:49:46;9.53;;;5.30;;
8230;SDS011;4156;50.908;6.974;2024-01-15T09:52:12;8.03;;;5.80;;
8230;SDS011;4156;50.908;6.974;2024-01-15T09:54:40;7.27;;;4.53;;
8230;SDS011;4156;50.908;6.974;2024-01-15T09:57:06;7.53;;;5.07;;
8230;SDS011;4156;50.908;6.974;2024-01-15T09:59:32;5.97;;;4.60;;
8230;SDS011;4156;50.908;6.974;2024-01-15T10:02:00;6.30;;;4.63;;
8230;SDS011;4156;50.908;6.974;2024-01-15T10:04:27;7.53;;;4.20;;
8230;SDS011;4156;50.908;6.974;2024-01-15T10:06:53;5.27;;;4.03;;
8230;SDS011;4156;50.908;6.974;2024-01-15T10:09:20;5.63;;;4.10;;
8230;SDS011;4156;50.908;6.974;2024-01-15T10:11:46;5.80;;;4.33;;
8230;SDS011;4156;50.908;6.974;2024-01-15T10:14:12;5.53;;;3.93;;
8230;SDS011;4156;50.908;6.974;2024-01-15T10:16:41;5.40;;;3.93;;
8230;SDS011;4156;50.908;6.974;2024-01-15T10:19:08;5.53;;;3.90;;
8230;SDS011;4156;50.908;6.974;2024-01-15T10:21:35;4.53;;;3.60;;
8230;SDS011;4156;50.908;6.974;2024-01-15T10:24:01;5.30;;;3.50;;
8230;SDS011;4156;50.908;6.974;2024-01-15T10:26:27;6.70;;;4.20;;
8230;SDS011;4156;50.908;6.974;2024-01-15T10:28:53;4.80;;;3.57;;
8230;SDS011;4156;50.908;6.974;2024-01-15T10:31:20;4.00;;;3.20;;
8230;SDS011;4156;50.908;6.974;2024-01-15T10:33:47;5.33;;;3.30;;
8230;SDS011;4156;50.908;6.974;2024-01-15T10:36:13;3.90;;;3.30;;
8230;SDS011;4156;50.908;6.974;2024-01-15T10:38:39;4.47;;;3.47;;
8230;SDS011;4156;50.908;6.974;2024-01-15T10:41:05;5.93;;;3.27;;
8230;SDS011;4156;50.908;6.974;2024-01-15T10:43:31;5.80;;;3.03;;
8230;SDS011;4156;50.908;6.974;2024-01-15T10:45:59;4.50;;;3.57;;
8230;SDS011;4156;50.908;6.974;2024-01-15T10:48:25;3.63;;;3.13;;
8230;SDS011;4156;50.908;6.974;2024-01-15T10:50:53;3.17;;;2.87;;
8230;SDS011;4156;50.908;6.974;2024-01-15T10:53:19;6.23;;;3.47;;
8230;SDS011;4156;50.908;6.974;2024-01-15T10:55:46;4.23;;;3.63;;
8230;SDS011;4156;50.908;6.974;2024-01-15T10:58:13;4.37;;;3.50;;
8230;SDS011;4156;50.908;6.974;2024-01-15T11:00:40;5.57;;;3.63;;
8230;SDS011;4156;50.908;6.974;2024-01-15T11:03:06;6.07;;;3.07;;
8230;SDS011;4156;50.908;6.974;2024-01-15T11:05:33;3.47;;;3.13;;
8230;SDS011;4156;50.908;6.974;2024-01-15T11:07:59;4.77;;;2.70;;
8230;SDS011;4156;50.908;6.974;2024-01-15T11:13:53;3.27;;;2.80;;
8230;SDS011;4156;50.908;6.974;2024-01-15T11:18:28;3.93;;;3.23;;
8230;SDS011;4156;50.908;6.974;2024-01-15T11:23:42;3.27;;;2.83;;
8230;SDS011;4156;50.908;6.974;2024-01-15T11:28:54;3.00;;;2.60;;
8230;SDS011;4156;50.908;6.974;2024-01-15T11:31:20;3.10;;;2.80;;
8230;SDS011;4156;50.908;6.974;2024-01-15T11:33:49;4.97;;;2.90;;
8230;SDS011;4156;50.908;6.974;2024-01-15T11:36:16;3.10;;;2.80;;
8230;SDS011;4156;50.908;6.974;2024-01-15T11:38:42;5.33;;;3.30;;
8230;SDS011;4156;50.908;6.974;2024-01-15T11:41:14;3.37;;;3.07;;
8230;SDS011;4156;50.908;6.974;2024-01-15T11:43:43;5.57;;;3.20;;
8230;SDS011;4156;50.908;6.974;2024-01-15T11:46:10;3.47;;;3.17;;
8230;SDS011;4156;50.908;6.974;2024-01-15T11:48:42;4.13;;;3.43;;
8230;SDS011;4156;50.908;6.974;2024-01-15T11:51:12;4.73;;;3.70;;
8230;SDS011;4156;50.908;6.974;2024-01-15T11:53:48;4.43;;;3.87;;
8230;SDS011;4156;50.908;6.974;2024-01-15T11:56:14;5.77;;;3.97;;
8230;SDS011;4156;50.908;6.974;2024-01-15T11:58:44;4.00;;;3.70;;
8230;SDS011;4156;50.908;6.974;2024-01-15T12:01:10;4.80;;;4.30;;
8230;SDS011;4156;50.908;6.974;2024-01-15T12:03:36;4.27;;;3.60;;
8230;SDS011;4156;50.908;6.974;2024-01-15T12:06:05;4.17;;;3.67;;
8230;SDS011;4156;50.908;6.974;2024-01-15T12:08:31;5.70;;;4.23;;
8230;SDS011;4156;50.908;6.974;2024-01-15T12:10:57;5.67;;;4.53;;
8230;SDS011;4156;50.908;6.974;2024-01-15T12:13:23;6.23;;;4.63;;
8230;SDS011;4156;50.908;6.974;2024-01-15T12:15:49;5.00;;;4.30;;
8230;SDS011;4156;50.908;6.974;2024-01-15T12:18:16;6.97;;;4.57;;
8230;SDS011;4156;50.908;6.974;2024-01-15T12:20:43;6.77;;;4.77;;
8230;SDS011;4156;50.908;6.974;2024-01-15T12:23:11;6.00;;;4.80;;
8230;SDS011;4156;50.908;6.974;2024-01-15T12:25:41;7.20;;;4.33;;
8230;SDS011;4156;50.908;6.974;2024-01-15T12:28:08;6.10;;;4.33;;
8230;SDS011;4156;50.908;6.974;2024-01-15T12:30:35;6.57;;;4.37;;
8230;SDS011;4156;50.908;6.974;2024-01-15T12:33:02;7.50;;;4.63;;
8230;SDS011;4156;50.908;6.974;2024-01-15T12:35:32;7.03;;;4.63;;
8230;SDS011;4156;50.908;6.974;2024-01-15T12:37:59;9.17;;;4.30;;
8230;SDS011;4156;50.908;6.974;2024-01-15T12:40:27;6.30;;;4.23;;
8230;SDS011;4156;50.908;6.974;2024-01-15T12:42:53;6.80;;;4.00;;
8230;SDS011;4156;50.908;6.974;2024-01-15T12:45:19;7.47;;;4.53;;
8230;SDS011;4156;50.908;6.974;2024-01-15T12:47:45;12.20;;;4.60;;
8230;SDS011;4156;50.908;6.974;2024-01-15T12:50:12;9.27;;;4.73;;
8230;SDS011;4156;50.908;6.974;2024-01-15T12:52:39;7.30;;;3.90;;
8230;SDS011;4156;50.908;6.974;2024-01-15T12:55:06;13.70;;;4.50;;
8230;SDS011;4156;50.908;6.974;2024-01-15T12:57:34;6.23;;;3.90;;
8230;SDS011;4156;50.908;6.974;2024-01-15T13:00:00;6.60;;;3.90;;
8230;SDS011;4156;50.908;6.974;2024-01-15T13:02:26;4.23;;;3.23;;
8230;SDS011;4156;50.908;6.974;2024-01-15T13:04:52;8.30;;;4.13;;
8230;SDS011;4156;50.908;6.974;2024-01-15T13:07:19;4.27;;;3.37;;
8230;SDS011;4156;50.908;6.974;2024-01-15T13:09:45;5.70;;;3.43;;
8230;SDS011;4156;50.908;6.974;2024-01-15T13:12:11;6.23;;;3.50;;
8230;SDS011;4156;50.908;6.974;2024-01-15T13:14:37;6.23;;;3.57;;
8230;SDS011;4156;50.908;6.974;2024-01-15T13:17:03;5.90;;;3.73;;
8230;SDS011;4156;50.908;6.974;2024-01-15T13:19:29;5.93;;;3.53;;
8230;SDS011;4156;50.908;6.974;2024-01-15T13:21:55;7.70;;;4.80;;
8230;SDS011;4156;50.908;6.974;2024-01-15T13:24:23;5.97;;;3.63;;
8230;SDS011;4156;50.908;6.974;2024-01-15T13:26:49;5.30;;;2.83;;
8230;SDS011;4156;50.908;6.974;2024-01-15T13:29:15;6.50;;;3.23;;
8230;SDS011;4156;50.908;6.974;2024-01-15T13:31:41;8.17;;;4.20;;
8230;SDS011;4156;50.908;6.974;2024-01-15T13:34:07;6.07;;;2.80;;
8230;SDS011;4156;50.908;6.974;2024-01-15T13:36:34;5.97;;;3.17;;
8230;SDS011;4156;50.908;6.974;2024-01-15T13:39:00;3.53;;;2.40;;
8230;SDS011;4156;50.908;6.974;2024-01-15T13:41:26;5.70;;;2.83;;
8230;SDS011;4156;50.908;6.974;2024-01-15T13:43:53;2.93;;;2.53;;
8230;SDS011;4156;50.908;6.974;2024-01-15T13:46:19;7.40;;;2.63;;
8230;SDS011;4156;50.908;6.974;2024-01-15T13:48:46;3.87;;;2.57;;
8230;SDS011;4156;50.908;6.974;2024-01-15T13:51:12;3.97;;;2.43;;
8230;SDS011;4156;50.908;6.974;2024-01-15T13:53:38;4.63;;;2.30;;
8230;SDS011;4156;50.908;6.974;2024-01-15T13:56:05;3.20;;;2.20;;
8230;SDS011;4156;50.908;6.974;2024-01-15T13:58:31;3.30;;;2.30;;
8230;SDS011;4156;50.908;6.974;2024-01-15T14:01:00;4.07;;;2.20;;
8230;SDS011;4156;50.908;6.974;2024-01-15T14:03:27;4.40;;;1.90;;
8230;SDS011;4156;50.908;6.974;2024-01-15T14:05:54;3.03;;;1.80;;
8230;SDS011;4156;50.908;6.974;2024-01-15T14:08:20;3.27;;;2.00;;
8230;SDS011;4156;50.908;6.974;2024-01-15T14:10:46;3.63;;;1.97;;
8230;SDS011;4156;50.908;6.974;2024-01-15T14:13:12;4.03;;;1.70;;
8230;SDS011;4156;50.908;6.974;2024-01-15T14:15:38;3.37;;;1.60;;
8230;SDS011;4156;50.908;6.974;2024-01-15T14:18:05;2.63;;;1.80;;
8230;SDS011;4156;50.908;6.974;2024-01-15T14:20:33;2.83;;;1.70;;
8230;SDS011;4156;50.908;6.974;2024-01-15T14:22:59;3.23;;;1.83;;
8230;SDS011;4156;50.908;6.974;2024-01-15T14:25:25;3.07;;;1.73;;
8230;SDS011;4156;50.908;6.974;2024-01-15T14:27:51;3.47;;;1.70;;
8230;SDS011;4156;50.908;6.974;2024-01-15T14:30:17;1.60;;;1.50;;
8230;SDS011;4156;50.908;6.974;2024-01-15T14:32:43;2.10;;;1.60;;
8230;SDS011;4156;50.908;6.974;2024-01-15T14:35:09;2.53;;;1.73;;
8230;SDS011;4156;50.908;6.974;2024-01-15T14:37:36;3.17;;;1.80;;
8230;SDS011;4156;50.908;6.974;2024-01-15T14:40:02;1.77;;;1.67;;
8230;SDS011;4156;50.908;6.974;2024-01-15T14:42:29;3.33;;;1.67;;
8230;SDS011;4156;50.908;6.974;2024-01-15T14:44:55;2.10;;;1.90;;
8230;SDS011;4156;50.908;6.974;2024-01-15T14:47:21;2.07;;;1.87;;
8230;SDS011;4156;50.908;6.974;2024-01-15T14:49:49;2.17;;;1.80;;
8230;SDS011;4156;50.908;6.974;2024-01-15T14:52:15;2.10;;;1.90;;
8230;SDS011;4156;50.908;6.974;2024-01-15T14:54:41;3.83;;;1.80;;
8230;SDS011;4156;50.908;6.974;2024-01-15T14:57:07;2.00;;;1.60;;
8230;SDS011;4156;50.908;6.974;2024-01-15T14:59:33;1.70;;;1.60;;
8230;SDS011;4156;50.908;6.974;2024-01-15T15:02:00;3.30;;;1.80;;
8230;SDS011;4156;50.908;6.974;2024-01-15T15:04:26;2.60;;;1.77;;
8230;SDS011;4156;50.908;6.974;2024-01-15T15:06:53;2.83;;;2.63;;
8230;SDS011;4156;50.908;6.974;2024-01-15T15:09:19;2.83;;;1.90;;